Time;durP1;ratioP1;P1;durP2;ratioP2;P2;SDS_P1;SDS_P2;PMS_P1;PMS_P2;Temp;Humidity;BMP_temperature;BMP_pressure;BME280_temperature;BME280_humidity;BME280_pressure;Samples;Min_cycle;Max_cycle;Signal;HPM_P1;HPM_P2
2021/09/30 00:00:47;;;;;;;4.90;3.97;;;11.70;99.90;;;;;;6032901;23;20196;-67
2021/09/30 00:03:13;;;;;;;3.77;3.30;;;11.70;99.90;;;;;;6033492;23;20167;-68
2021/09/30 00:05:42;;;;;;;5.37;3.20;;;11.70;99.90;;;;;;6007652;23;20616;-68
2021/09/30 00:08:09;;;;;;;3.63;3.23;;;11.70;99.90;;;;;;6033531;23;20172;-68
2021/09/30 00:10:36;;;;;;;5.07;3.93;;;11.70;99.90;;;;;;6034264;23;21006;-68
2021/09/30 00:13:24;;;;;;;4.80;3.57;;;11.80;99.90;;;;;;6033970;23;20565;-67
2021/09/30 00:46:20;;;;;;;4.70;3.40;;;11.80;99.90;;;;;;6032765;23;20749;-68
2021/09/30 00:48:59;;;;;;;4.90;3.20;;;11.80;99.90;;;;;;6032981;23;20512;-67
2021/09/30 00:51:41;;;;;;;5.37;3.60;;;11.80;99.90;;;;;;6035521;23;20849;-68
2021/09/30 01:20:18;;;;;;;6.43;4.03;;;11.80;99.90;;;;;;6034582;23;20584;-66
2021/09/30 02:18:13;;;;;;;5.83;3.17;;;11.80;99.90;;;;;;6037092;23;20537;-69
2021/09/30 02:19:07;;;;;;;3.90;2.00;;;11.80;99.90;;;;;;6035640;23;20505;-70
2021/09/30 02:22:04;;;;;;;5.10;1.57;;;11.80;99.90;;;;;;6034926;23;21001;-69
2021/09/30 03:00:22;;;;;;;4.73;1.73;;;11.70;99.90;;;;;;6033191;23;21169;-69
2021/09/30 03:02:55;;;;;;;5.00;2.10;;;11.60;99.90;;;;;;6034165;23;20516;-69
2021/09/30 03:05:22;;;;;;;4.40;1.50;;;11.60;99.90;;;;;;6030672;23;20579;-69
2021/09/30 03:07:51;;;;;;;4.93;1.70;;;11.60;99.90;;;;;;6033868;23;20810;-69
2021/09/30 03:10:21;;;;;;;3.83;1.50;;;11.60;99.90;;;;;;6034086;23;20680;-70
2021/09/30 03:12:51;;;;;;;4.03;1.57;;;11.60;99.90;;;;;;6032653;23;20573;-70
2021/09/30 03:23:10;;;;;;;6.60;1.43;;;11.60;99.90;;;;;;6033304;23;20896;-69
2021/09/30 03:25:47;;;;;;;3.60;1.33;;;11.70;99.90;;;;;;6032091;23;20644;-70
2021/09/30 03:28:15;;;;;;;6.60;1.60;;;11.70;99.90;;;;;;6008442;23;20608;-69
2021/09/30 03:30:41;;;;;;;1.90;1.30;;;11.70;99.90;;;;;;6033768;23;20883;-70
2021/09/30 03:33:09;;;;;;;5.37;1.30;;;11.70;99.90;;;;;;6033203;23;20838;-69
2021/09/30 03:35:36;;;;;;;2.50;1.10;;;11.70;99.90;;;;;;6031811;23;20545;-68
2021/09/30 03:38:03;;;;;;;4.43;1.30;;;11.60;99.90;;;;;;6033370;23;20607;-69
2021/09/30 03:40:28;;;;;;;3.27;1.23;;;11.60;99.90;;;;;;6033750;23;21228;-69
2021/09/30 03:42:54;;;;;;;4.47;1.60;;;11.60;99.90;;;;;;6032926;23;20629;-69
2021/09/30 03:45:22;;;;;;;3.80;1.10;;;11.60;99.90;;;;;;6032355;23;20262;-67
2021/09/30 03:47:47;;;;;;;3.30;1.50;;;11.50;99.90;;;;;;6007079;23;20163;-68
2021/09/30 03:50:23;;;;;;;4.50;1.33;;;11.50;99.90;;;;;;6033158;23;20577;-68
2021/09/30 04:00:49;;;;;;;3.23;1.17;;;11.50;99.90;;;;;;6033552;23;20599;-69
2021/09/30 04:03:14;;;;;;;3.60;1.47;;;11.50;99.90;;;;;;6032832;23;20557;-69
2021/09/30 04:05:40;;;;;;;2.73;1.13;;;11.50;99.90;;;;;;6032810;23;20675;-69
2021/09/30 04:08:08;;;;;;;6.70;1.87;;;11.50;99.90;;;;;;6033495;23;20191;-69
2021/09/30 04:10:36;;;;;;;4.00;1.03;;;11.50;99.90;;;;;;6008011;23;20612;-69
2021/09/30 04:13:02;;;;;;;4.10;1.27;;;11.50;99.90;;;;;;6032841;23;20541;-68
2021/09/30 04:15:36;;;;;;;3.23;1.33;;;11.50;99.90;;;;;;6031772;23;20542;-68
2021/09/30 04:18:02;;;;;;;3.10;1.40;;;11.50;99.90;;;;;;6003629;23;20160;-69
2021/09/30 04:20:29;;;;;;;3.43;1.30;;;11.40;99.90;;;;;;6032789;23;20580;-68
2021/09/30 04:22:55;;;;;;;4.53;1.50;;;11.40;99.90;;;;;;6034029;23;20591;-69
2021/09/30 04:25:21;;;;;;;3.80;1.20;;;11.40;99.90;;;;;;6031324;23;20587;-68
2021/09/30 04:28:00;;;;;;;2.47;1.20;;;11.40;99.90;;;;;;6004536;23;20919;-69
2021/09/30 04:30:26;;;;;;;4.73;1.30;;;11.40;99.90;;;;;;6032379;23;20304;-69
2021/09/30 04:32:52;;;;;;;4.00;1.60;;;11.40;99.90;;;;;;6033854;23;20942;-68
2021/09/30 04:35:18;;;;;;;3.20;1.20;;;11.50;99.90;;;;;;6033992;23;20171;-68
2021/09/30 04:37:43;;;;;;;3.53;1.17;;;11.50;99.90;;;;;;6032302;23;20206;-69
2021/09/30 04:40:10;;;;;;;4.00;1.20;;;11.50;99.90;;;;;;6032571;23;21160;-68
2021/09/30 04:42:35;;;;;;;3.20;1.30;;;11.50;99.90;;;;;;6032032;23;20160;-68
2021/09/30 04:45:02;;;;;;;2.47;1.30;;;11.40;99.90;;;;;;6032042;23;20930;-68
2021/09/30 04:47:28;;;;;;;3.13;1.77;;;11.50;99.90;;;;;;6032317;23;20589;-69
2021/09/30 04:49:54;;;;;;;6.50;1.40;;;11.40;99.90;;;;;;6030969;23;20659;-69
2021/09/30 04:52:22;;;;;;;5.60;2.17;;;11.40;99.90;;;;;;6052996;23;20157;-69
2021/09/30 04:54:49;;;;;;;2.90;1.63;;;11.50;99.90;;;;;;6052904;23;20545;-69
2021/09/30 04:57:20;;;;;;;5.67;1.50;;;11.40;99.90;;;;;;6038579;23;20672;-69
2021/09/30 04:59:46;;;;;;;3.17;1.53;;;11.50;99.90;;;;;;6034696;23;20606;-69
2021/09/30 05:02:12;;;;;;;4.53;1.63;;;11.40;99.90;;;;;;6035072;23;20920;-69
2021/09/30 05:04:37;;;;;;;2.80;1.40;;;11.50;99.90;;;;;;6034394;23;20267;-69
2021/09/30 05:07:05;;;;;;;3.87;1.50;;;11.40;99.90;;;;;;6032025;23;20306;-69
2021/09/30 05:09:32;;;;;;;5.20;2.07;;;11.40;99.90;;;;;;6030517;23;20177;-69
2021/09/30 05:12:03;;;;;;;3.20;1.77;;;11.40;99.90;;;;;;6032405;23;20898;-69
2021/09/30 05:14:29;;;;;;;4.00;1.73;;;11.40;99.90;;;;;;6032310;23;20524;-69
2021/09/30 05:16:57;;;;;;;4.03;1.63;;;11.40;99.90;;;;;;6032039;23;20588;-69
2021/09/30 05:19:25;;;;;;;4.90;1.87;;;11.40;99.90;;;;;;6030192;23;20643;-70
2021/09/30 05:21:53;;;;;;;2.60;1.77;;;11.40;99.90;;;;;;6032285;23;20549;-69
2021/09/30 05:24:18;;;;;;;4.10;2.33;;;11.40;99.90;;;;;;6033336;23;20596;-69
2021/09/30 05:26:44;;;;;;;3.77;1.50;;;11.50;99.90;;;;;;6029004;23;20600;-69
2021/09/30 05:29:12;;;;;;;5.20;1.80;;;11.50;99.90;;;;;;6029500;23;20184;-68
2021/09/30 05:31:37;;;;;;;4.67;2.00;;;11.50;99.90;;;;;;6034377;23;20156;-68
2021/09/30 05:34:03;;;;;;;5.50;2.10;;;11.40;99.90;;;;;;6034629;23;20735;-68
2021/09/30 05:36:29;;;;;;;5.40;2.10;;;11.50;99.90;;;;;;6032969;23;20234;-68
2021/09/30 05:38:54;;;;;;;8.03;2.93;;;11.40;99.90;;;;;;6009014;23;20168;-68
2021/09/30 05:41:21;;;;;;;3.83;1.70;;;11.40;99.90;;;;;;6037630;23;20161;-68
2021/09/30 05:43:58;;;;;;;3.07;1.60;;;11.40;99.90;;;;;;6036785;23;20165;-67
2021/09/30 05:46:59;;;;;;;3.83;1.47;;;11.40;99.90;;;;;;6035766;23;21209;-67
2021/09/30 05:49:15;;;;;;;2.47;1.60;;;11.40;99.90;;;;;;6030952;23;20717;-67
2021/09/30 05:51:43;;;;;;;3.47;1.30;;;11.40;99.90;;;;;;6010138;23;20584;-68
2021/09/30 05:54:09;;;;;;;3.00;1.50;;;11.40;99.90;;;;;;6035902;23;20164;-67
2021/09/30 05:56:37;;;;;;;3.70;1.50;;;11.50;99.90;;;;;;6036664;23;21222;-67
2021/09/30 05:59:04;;;;;;;4.10;1.88;;;11.50;99.90;;;;;;6033920;23;20701;-67
2021/09/30 06:09:14;;;;;;;3.87;1.67;;;11.60;99.90;;;;;;6031937;23;20640;-67
2021/09/30 06:12:45;;;;;;;3.03;1.57;;;11.40;99.90;;;;;;6037142;23;20931;-67
2021/09/30 06:15:14;;;;;;;4.53;2.10;;;11.30;99.90;;;;;;6010760;23;20557;-71
2021/09/30 06:17:41;;;;;;;4.77;1.60;;;11.40;99.90;;;;;;6006896;23;20656;-68
2021/09/30 06:20:07;;;;;;;5.37;1.57;;;11.40;99.90;;;;;;6035233;23;20601;-67
2021/09/30 06:22:32;;;;;;;3.30;1.50;;;11.40;99.90;;;;;;6036209;23;20571;-67
2021/09/30 06:24:58;;;;;;;4.20;1.50;;;11.30;99.90;;;;;;6036509;23;20263;-68
2021/09/30 06:27:26;;;;;;;3.73;1.40;;;11.30;99.90;;;;;;6033511;23;20288;-68
2021/09/30 06:29:52;;;;;;;4.40;1.63;;;11.30;99.90;;;;;;6035864;23;20180;-68
2021/09/30 06:32:17;;;;;;;2.90;1.67;;;11.30;99.90;;;;;;6031767;23;20551;-68
2021/09/30 06:34:44;;;;;;;4.03;1.60;;;11.30;99.90;;;;;;6035009;23;20164;-67
2021/09/30 06:37:09;;;;;;;2.57;1.30;;;11.30;99.90;;;;;;6034566;23;20208;-68
2021/09/30 06:39:37;;;;;;;2.00;1.37;;;11.30;99.90;;;;;;6032999;23;20595;-67
2021/09/30 06:42:02;;;;;;;4.10;1.60;;;11.30;99.90;;;;;;6012351;23;20224;-68
2021/09/30 06:44:28;;;;;;;5.30;1.80;;;11.40;99.90;;;;;;6034954;23;20585;-67
2021/09/30 06:46:54;;;;;;;1.47;1.37;;;11.50;99.90;;;;;;6033772;23;20199;-67
2021/09/30 06:49:19;;;;;;;3.53;1.97;;;11.60;99.90;;;;;;6035574;23;20175;-68
2021/09/30 06:51:45;;;;;;;4.10;1.43;;;11.60;99.90;;;;;;6033539;23;20161;-67
2021/09/30 06:54:10;;;;;;;3.50;1.70;;;11.70;99.90;;;;;;6034018;23;20239;-67
2021/09/30 06:56:36;;;;;;;3.27;1.40;;;11.70;99.90;;;;;;6035483;23;20207;-67
2021/09/30 06:59:05;;;;;;;2.20;1.53;;;11.80;99.90;;;;;;6036533;23;20164;-67
2021/09/30 07:01:35;;;;;;;1.40;1.27;;;11.80;99.90;;;;;;6035419;23;20179;-67
2021/09/30 07:04:05;;;;;;;2.87;1.53;;;11.90;99.90;;;;;;6032795;23;20962;-68
2021/09/30 07:06:31;;;;;;;4.63;1.40;;;11.90;99.90;;;;;;6033079;23;20623;-68
2021/09/30 07:08:56;;;;;;;5.33;1.50;;;11.90;99.90;;;;;;6034963;23;20541;-68
2021/09/30 07:11:22;;;;;;;3.00;1.80;;;11.90;99.90;;;;;;6035127;23;20157;-68
2021/09/30 07:13:47;;;;;;;4.63;1.50;;;12.00;99.90;;;;;;6034687;23;20599;-68
2021/09/30 07:16:13;;;;;;;4.93;1.43;;;12.00;99.90;;;;;;6033467;23;20200;-68
2021/09/30 07:18:38;;;;;;;4.17;1.63;;;12.00;99.90;;;;;;6035066;23;20156;-67
2021/09/30 07:21:04;;;;;;;2.40;1.33;;;12.10;99.90;;;;;;6035179;23;20180;-68
2021/09/30 07:23:36;;;;;;;4.93;1.50;;;12.10;99.90;;;;;;6036945;23;20176;-68
2021/09/30 07:26:03;;;;;;;2.17;1.47;;;12.10;99.90;;;;;;6035005;23;20291;-68
2021/09/30 07:28:28;;;;;;;3.07;1.97;;;12.20;99.90;;;;;;6035529;23;20537;-68
2021/09/30 07:30:54;;;;;;;2.60;1.50;;;12.20;99.90;;;;;;6034891;23;20632;-68
2021/09/30 07:33:24;;;;;;;8.40;1.70;;;12.20;99.90;;;;;;6017163;23;20175;-68
2021/09/30 07:35:51;;;;;;;3.33;1.43;;;12.20;99.90;;;;;;6033545;23;20236;-68
2021/09/30 07:38:16;;;;;;;3.73;1.33;;;12.20;99.90;;;;;;6046943;23;20581;-68
2021/09/30 07:40:42;;;;;;;2.50;1.50;;;12.20;99.90;;;;;;6036856;23;20580;-68
2021/09/30 07:43:08;;;;;;;5.00;1.60;;;12.20;99.90;;;;;;6009695;23;20547;-68
2021/09/30 07:45:33;;;;;;;4.17;1.50;;;12.20;99.90;;;;;;6034559;23;20196;-68
2021/09/30 07:47:59;;;;;;;3.73;1.60;;;12.30;99.90;;;;;;6035528;23;20632;-68
2021/09/30 07:50:25;;;;;;;4.40;1.70;;;12.40;99.90;;;;;;6034569;23;20211;-69
2021/09/30 07:52:50;;;;;;;4.00;1.30;;;12.40;99.90;;;;;;6010659;23;20175;-68
2021/09/30 07:55:17;;;;;;;2.60;1.50;;;12.40;99.90;;;;;;6035567;23;20160;-68
2021/09/30 07:57:43;;;;;;;2.50;1.37;;;12.50;99.90;;;;;;6008808;23;20547;-68
2021/09/30 08:00:09;;;;;;;2.80;1.40;;;12.60;99.90;;;;;;6033885;23;20601;-68
2021/09/30 08:02:35;;;;;;;3.37;1.40;;;12.60;99.90;;;;;;6032083;23;20200;-68
2021/09/30 08:05:00;;;;;;;2.83;1.27;;;12.70;99.90;;;;;;6035455;23;20605;-68
2021/09/30 08:07:26;;;;;;;5.00;1.43;;;12.80;99.90;;;;;;6033057;23;20201;-68
2021/09/30 08:09:51;;;;;;;4.20;1.30;;;12.90;99.90;;;;;;6034213;23;20247;-68
2021/09/30 08:12:19;;;;;;;2.80;1.50;;;12.90;99.90;;;;;;6036009;23;20647;-68
2021/09/30 08:14:45;;;;;;;4.00;1.80;;;12.90;99.90;;;;;;6035163;23;20170;-68
2021/09/30 08:17:11;;;;;;;3.27;1.50;;;13.00;99.90;;;;;;6033231;23;20612;-68
2021/09/30 08:19:36;;;;;;;2.40;1.37;;;13.10;99.90;;;;;;6034137;23;20188;-68
2021/09/30 08:22:02;;;;;;;2.20;1.50;;;13.10;99.90;;;;;;6036587;23;20506;-68
2021/09/30 08:24:28;;;;;;;4.50;1.33;;;13.00;99.90;;;;;;6035488;23;20184;-68
2021/09/30 08:26:54;;;;;;;2.00;1.30;;;13.10;99.90;;;;;;6034788;23;20589;-68
2021/09/30 08:29:21;;;;;;;2.60;1.23;;;13.00;99.90;;;;;;6035488;23;20625;-69
2021/09/30 08:31:47;;;;;;;4.33;1.60;;;13.10;99.90;;;;;;6034129;23;20879;-68
2021/09/30 08:34:13;;;;;;;3.00;1.30;;;13.10;99.90;;;;;;6031839;23;20632;-68
2021/09/30 08:36:39;;;;;;;3.30;1.70;;;13.10;99.90;;;;;;6035311;23;20623;-68
2021/09/30 08:39:07;;;;;;;3.43;1.73;;;13.30;99.90;;;;;;6033985;23;20603;-68
2021/09/30 08:41:34;;;;;;;3.67;1.60;;;13.40;99.90;;;;;;6033935;23;20560;-68
2021/09/30 08:44:00;;;;;;;1.93;1.33;;;13.50;99.90;;;;;;6033286;23;20556;-68
2021/09/30 08:46:25;;;;;;;3.20;1.07;;;13.60;99.90;;;;;;6033995;23;20674;-68
2021/09/30 08:48:51;;;;;;;3.37;1.40;;;13.70;99.90;;;;;;6033663;23;20156;-68
2021/09/30 08:51:17;;;;;;;3.03;1.20;;;13.80;99.90;;;;;;6035190;23;20653;-68
2021/09/30 08:53:44;;;;;;;1.83;1.30;;;13.80;99.90;;;;;;6034881;23;20576;-68
2021/09/30 08:56:10;;;;;;;1.53;1.43;;;13.80;99.90;;;;;;6032932;23;20199;-68
2021/09/30 08:58:37;;;;;;;3.90;1.40;;;13.90;99.90;;;;;;6032017;23;20565;-68
2021/09/30 09:01:06;;;;;;;5.53;1.80;;;14.00;99.90;;;;;;6030229;23;20542;-68
2021/09/30 09:03:42;;;;;;;2.40;1.33;;;14.10;99.90;;;;;;6033509;23;20620;-68
2021/09/30 09:06:10;;;;;;;3.00;1.43;;;14.20;99.90;;;;;;6034685;23;20663;-68
2021/09/30 09:08:36;;;;;;;3.70;1.30;;;14.20;99.90;;;;;;6035477;23;20533;-68
2021/09/30 09:11:04;;;;;;;3.67;1.50;;;14.20;99.90;;;;;;6032015;23;20597;-68
2021/09/30 09:13:30;;;;;;;5.90;2.70;;;14.20;99.90;;;;;;6036460;23;20584;-68
2021/09/30 09:16:01;;;;;;;2.87;1.13;;;14.10;99.90;;;;;;6035279;23;20607;-68
2021/09/30 09:18:32;;;;;;;3.07;1.40;;;14.10;99.90;;;;;;6034083;23;20565;-68
2021/09/30 09:21:11;;;;;;;3.90;1.80;;;14.10;99.90;;;;;;6037465;23;20623;-68
2021/09/30 09:23:53;;;;;;;1.83;1.50;;;14.10;99.90;;;;;;6037556;23;20946;-68
2021/09/30 09:26:21;;;;;;;3.40;1.60;;;14.10;99.90;;;;;;6033174;23;21193;-68
2021/09/30 09:29:14;;;;;;;4.63;1.70;;;14.10;99.90;;;;;;6035464;23;20592;-68
2021/09/30 09:31:48;;;;;;;3.97;1.90;;;14.20;99.90;;;;;;6036628;23;20544;-68
2021/09/30 09:34:21;;;;;;;2.53;1.20;;;14.20;99.90;;;;;;6033674;23;20547;-67
2021/09/30 09:36:50;;;;;;;3.43;1.57;;;14.30;99.90;;;;;;6035214;23;20584;-68
2021/09/30 09:39:35;;;;;;;2.50;1.20;;;14.40;99.90;;;;;;6036316;23;20926;-68
2021/09/30 09:42:14;;;;;;;2.20;1.20;;;14.50;99.90;;;;;;6034979;23;20994;-67
2021/09/30 09:44:56;;;;;;;3.30;1.67;;;14.50;99.90;;;;;;6011273;23;20603;-68
2021/09/30 09:47:29;;;;;;;4.53;1.90;;;14.60;99.90;;;;;;6035719;23;21210;-68
2021/09/30 09:50:13;;;;;;;6.33;2.10;;;14.80;99.90;;;;;;6037450;23;20564;-68
2021/09/30 09:52:46;;;;;;;2.80;1.50;;;14.90;99.90;;;;;;6036024;23;20616;-68
2021/09/30 09:55:28;;;;;;;5.33;1.60;;;14.90;99.90;;;;;;6049780;23;20616;-68
2021/09/30 09:58:03;;;;;;;3.70;1.80;;;14.90;99.90;;;;;;6049612;23;20623;-68
2021/09/30 10:00:35;;;;;;;3.80;1.80;;;14.90;99.90;;;;;;6045425;23;20603;-68
2021/09/30 10:03:22;;;;;;;7.53;1.60;;;15.00;99.90;;;;;;6034271;23;20732;-68
2021/09/30 10:05:51;;;;;;;2.70;1.60;;;15.20;99.90;;;;;;6034187;23;20601;-68
2021/09/30 10:08:17;;;;;;;1.83;1.50;;;15.30;99.90;;;;;;6035749;23;20544;-68
2021/09/30 10:10:45;;;;;;;4.17;1.83;;;15.40;99.90;;;;;;6035610;23;20671;-68
2021/09/30 10:13:11;;;;;;;3.53;1.70;;;15.40;99.90;;;;;;6033771;23;20537;-68
2021/09/30 10:15:39;;;;;;;5.10;2.30;;;15.50;99.90;;;;;;6035211;23;20771;-68
2021/09/30 10:18:10;;;;;;;3.40;2.37;;;15.50;99.90;;;;;;6041184;23;20543;-68
2021/09/30 10:20:37;;;;;;;5.70;2.17;;;15.70;99.90;;;;;;6054283;23;20600;-68
2021/09/30 10:23:06;;;;;;;6.83;1.80;;;15.70;99.90;;;;;;6044560;23;20541;-68
2021/09/30 10:25:33;;;;;;;4.63;1.63;;;15.60;99.90;;;;;;6037944;23;20599;-68
2021/09/30 10:28:01;;;;;;;5.87;1.90;;;15.70;99.90;;;;;;6038250;23;20573;-68
2021/09/30 10:30:46;;;;;;;8.40;2.87;;;15.80;99.90;;;;;;6035365;23;21091;-68
2021/09/30 10:33:19;;;;;;;5.37;2.10;;;16.00;99.90;;;;;;6034345;23;20559;-68
2021/09/30 10:35:50;;;;;;;7.20;2.07;;;16.10;99.90;;;;;;6005743;23;21118;-68
2021/09/30 10:38:31;;;;;;;6.80;1.70;;;16.10;99.90;;;;;;6035701;23;20508;-68
2021/09/30 10:41:00;;;;;;;5.03;1.83;;;16.20;99.90;;;;;;6009834;23;20989;-68
2021/09/30 10:43:28;;;;;;;2.97;1.60;;;16.40;99.90;;;;;;6034175;23;20545;-68
2021/09/30 10:45:56;;;;;;;4.87;1.80;;;16.40;99.90;;;;;;6033545;23;21220;-68
2021/09/30 10:48:24;;;;;;;3.60;1.67;;;16.30;99.90;;;;;;6035013;23;20560;-68
2021/09/30 10:51:16;;;;;;;5.73;2.10;;;16.40;99.90;;;;;;6035469;23;20852;-68
2021/09/30 10:53:45;;;;;;;4.87;1.53;;;16.40;99.90;;;;;;6030118;23;20577;-68
2021/09/30 10:56:39;;;;;;;6.13;1.97;;;16.40;99.90;;;;;;6032599;23;20691;-68
2021/09/30 10:59:07;;;;;;;6.20;2.03;;;16.40;99.90;;;;;;6033465;23;20519;-68
2021/09/30 11:01:49;;;;;;;4.40;2.17;;;16.40;99.90;;;;;;5991224;23;1065367;-68
2021/09/30 11:04:18;;;;;;;3.80;1.70;;;16.30;99.90;;;;;;6035410;23;20858;-68
2021/09/30 11:07:14;;;;;;;4.83;1.63;;;16.30;99.90;;;;;;6034459;23;20623;-68
2021/09/30 11:09:40;;;;;;;6.70;2.27;;;16.30;99.90;;;;;;6036179;23;20569;-68
2021/09/30 11:12:10;;;;;;;4.43;1.73;;;16.20;99.90;;;;;;6036147;23;20529;-68
2021/09/30 11:14:56;;;;;;;5.50;2.00;;;16.10;99.90;;;;;;6035738;23;20168;-68
2021/09/30 11:17:39;;;;;;;4.20;1.80;;;16.00;99.90;;;;;;6029426;23;21204;-68
2021/09/30 11:20:34;;;;;;;5.50;1.90;;;15.90;99.90;;;;;;6033084;23;20569;-68
2021/09/30 11:23:00;;;;;;;2.70;1.40;;;16.00;99.90;;;;;;6035005;23;20537;-68
2021/09/30 11:26:07;;;;;;;4.63;1.70;;;15.90;99.90;;;;;;6031535;23;20588;-67
2021/09/30 11:28:33;;;;;;;3.80;1.93;;;15.90;99.90;;;;;;6032728;23;20154;-68
2021/09/30 11:31:30;;;;;;;6.80;2.10;;;16.10;99.90;;;;;;6032022;23;20560;-66
2021/09/30 11:33:58;;;;;;;5.27;1.50;;;16.30;99.90;;;;;;6030880;23;20216;-66
2021/09/30 11:36:35;;;;;;;4.50;1.50;;;16.50;99.90;;;;;;6027849;23;20589;-66
2021/09/30 11:39:05;;;;;;;3.57;1.90;;;16.60;99.90;;;;;;6030631;23;20572;-66
2021/09/30 11:41:32;;;;;;;4.73;1.80;;;16.80;99.90;;;;;;6032286;23;20545;-66
2021/09/30 11:43:58;;;;;;;6.23;2.50;;;17.00;99.90;;;;;;6032933;23;20548;-66
2021/09/30 11:46:35;;;;;;;4.70;1.70;;;17.10;99.90;;;;;;6030468;23;20597;-67
2021/09/30 11:49:03;;;;;;;2.83;1.20;;;17.20;99.90;;;;;;6031430;23;20648;-66
2021/09/30 11:51:33;;;;;;;4.23;1.90;;;17.40;99.90;;;;;;6033059;23;20544;-66
2021/09/30 11:54:00;;;;;;;3.43;1.50;;;17.40;99.90;;;;;;6031943;23;20537;-66
2021/09/30 11:56:27;;;;;;;2.53;1.30;;;17.60;99.90;;;;;;6029050;23;21225;-66
2021/09/30 11:59:02;;;;;;;4.13;1.77;;;17.70;99.90;;;;;;6030951;23;20533;-67
2021/09/30 12:01:45;;;;;;;3.40;1.60;;;17.70;99.90;;;;;;6030832;23;20564;-66
2021/09/30 12:04:26;;;;;;;2.40;1.30;;;17.70;99.90;;;;;;6029264;23;20972;-66
2021/09/30 12:06:52;;;;;;;4.20;1.60;;;17.90;99.90;;;;;;6030555;23;20603;-66
2021/09/30 12:09:20;;;;;;;2.50;1.53;;;18.20;99.90;;;;;;6031111;23;20561;-66
2021/09/30 12:12:02;;;;;;;3.37;1.37;;;18.50;99.90;;;;;;6030437;23;20551;-65
2021/09/30 12:14:38;;;;;;;4.07;1.30;;;18.60;99.90;;;;;;6030209;23;20571;-66
2021/09/30 12:17:07;;;;;;;2.90;1.30;;;19.00;99.90;;;;;;6029803;23;20940;-66
2021/09/30 12:19:39;;;;;;;2.40;1.33;;;19.30;99.90;;;;;;6030567;23;20600;-65
2021/09/30 12:22:14;;;;;;;2.23;1.40;;;19.60;99.90;;;;;;6027090;23;20657;-66
2021/09/30 12:24:47;;;;;;;2.80;1.70;;;19.90;99.90;;;;;;6033218;23;20871;-66
2021/09/30 12:27:14;;;;;;;3.13;1.37;;;20.10;99.90;;;;;;6030007;23;20592;-66
2021/09/30 12:29:50;;;;;;;4.00;1.60;;;21.20;99.90;;;;;;6029528;23;20572;-66
2021/09/30 12:32:26;;;;;;;6.00;1.30;;;22.80;99.90;;;;;;6029912;23;20957;-66
2021/09/30 12:34:56;;;;;;;2.97;1.60;;;24.20;99.90;;;;;;6006077;23;20557;-66
2021/09/30 12:37:29;;;;;;;2.10;1.40;;;25.60;99.90;;;;;;6030441;23;20939;-66
2021/09/30 12:40:14;;;;;;;3.17;1.60;;;27.00;99.90;;;;;;6031814;23;20616;-66
2021/09/30 12:43:04;;;;;;;4.87;1.80;;;26.50;96.40;;;;;;6033735;23;20521;-66
2021/09/30 12:45:34;;;;;;;2.17;1.60;;;26.70;95.20;;;;;;6031344;23;20964;-66
2021/09/30 12:48:22;;;;;;;3.50;2.33;;;26.40;94.60;;;;;;6033368;23;20879;-66
2021/09/30 12:50:49;;;;;;;4.70;2.00;;;25.50;95.10;;;;;;6033647;23;20593;-66
2021/09/30 12:53:17;;;;;;;3.70;1.73;;;25.30;94.40;;;;;;6032914;23;20777;-67
2021/09/30 12:55:44;;;;;;;3.73;1.97;;;26.60;95.20;;;;;;6027959;23;21266;-67
2021/09/30 12:58:32;;;;;;;2.40;1.47;;;28.60;92.30;;;;;;6029435;23;20880;-67
2021/09/30 13:01:00;;;;;;;4.70;1.97;;;30.20;86.40;;;;;;6029761;23;20656;-67
2021/09/30 13:03:26;;;;;;;4.77;1.77;;;31.70;81.20;;;;;;6034850;23;20620;-68
2021/09/30 13:05:57;;;;;;;2.83;1.93;;;31.50;72.90;;;;;;6026929;23;20703;-68
2021/09/30 13:08:42;;;;;;;4.03;1.43;;;31.00;72.70;;;;;;6030276;23;20191;-69
2021/09/30 13:11:29;;;;;;;3.57;2.03;;;29.20;74.40;;;;;;6046401;23;20557;-69
2021/09/30 13:14:13;;;;;;;4.43;1.47;;;27.70;75.50;;;;;;6037784;23;20512;-68
2021/09/30 13:16:40;;;;;;;4.03;1.77;;;26.90;81.30;;;;;;6029289;23;20632;-68
2021/09/30 13:19:06;;;;;;;4.43;2.23;;;26.10;81.80;;;;;;6030094;23;20572;-68
2021/09/30 13:22:02;;;;;;;6.40;2.20;;;25.10;82.60;;;;;;6028307;23;20588;-68
2021/09/30 13:24:28;;;;;;;4.90;2.10;;;23.90;85.70;;;;;;6030777;23;20172;-68
2021/09/30 13:26:54;;;;;;;4.13;1.30;;;23.00;87.70;;;;;;6031068;23;20621;-68
2021/09/30 13:29:21;;;;;;;5.70;1.80;;;22.70;92.60;;;;;;6033721;23;20565;-68
2021/09/30 13:31:46;;;;;;;3.37;1.40;;;22.70;91.30;;;;;;6031505;23;20552;-69
2021/09/30 13:34:12;;;;;;;3.93;1.60;;;22.40;92.60;;;;;;6029876;23;20557;-69
2021/09/30 13:36:39;;;;;;;2.57;1.30;;;22.20;93.40;;;;;;6029625;23;20263;-69
2021/09/30 13:39:05;;;;;;;3.60;1.53;;;22.00;94.30;;;;;;6032565;23;20157;-69
2021/09/30 13:41:30;;;;;;;3.23;1.47;;;21.80;93.70;;;;;;6028291;23;20565;-69
2021/09/30 13:43:56;;;;;;;4.80;1.80;;;21.50;94.80;;;;;;6033367;23;20865;-69
2021/09/30 13:46:21;;;;;;;3.83;1.30;;;21.30;94.00;;;;;;6030091;23;20383;-70
2021/09/30 13:48:47;;;;;;;3.27;1.60;;;21.20;97.00;;;;;;6032179;23;20247;-70
2021/09/30 13:51:13;;;;;;;2.90;1.37;;;21.20;95.90;;;;;;6029812;23;20180;-68
2021/09/30 13:53:38;;;;;;;2.93;1.40;;;21.20;95.60;;;;;;6030192;23;20167;-68
2021/09/30 13:56:04;;;;;;;3.13;1.53;;;21.10;95.30;;;;;;6030112;23;20659;-68
2021/09/30 13:58:32;;;;;;;3.13;1.50;;;20.90;96.70;;;;;;6029569;23;20612;-68
2021/09/30 14:00:58;;;;;;;2.97;1.60;;;20.80;96.10;;;;;;6005484;23;20204;-68
2021/09/30 14:03:24;;;;;;;5.10;1.93;;;20.70;97.50;;;;;;6032883;23;20901;-68
2021/09/30 14:05:50;;;;;;;3.90;1.50;;;20.50;97.20;;;;;;6029153;23;20627;-71
2021/09/30 14:08:18;;;;;;;3.77;1.23;;;20.30;98.90;;;;;;6030712;23;20599;-68
2021/09/30 14:10:44;;;;;;;5.33;1.97;;;20.20;99.90;;;;;;6034974;23;20180;-68
2021/09/30 14:13:10;;;;;;;5.73;2.13;;;20.00;99.00;;;;;;6036143;23;20545;-68
2021/09/30 14:15:35;;;;;;;3.67;1.40;;;19.90;99.50;;;;;;6034654;23;20591;-68
2021/09/30 14:18:01;;;;;;;3.93;1.80;;;19.80;99.60;;;;;;6032861;23;20160;-68
2021/09/30 14:20:27;;;;;;;2.77;1.57;;;19.70;99.90;;;;;;6036605;23;20615;-68
2021/09/30 14:22:52;;;;;;;1.80;1.10;;;19.70;99.90;;;;;;6034764;23;20510;-68
2021/09/30 14:25:18;;;;;;;4.57;1.50;;;19.60;99.90;;;;;;6037070;23;20188;-68
2021/09/30 14:27:44;;;;;;;2.43;1.60;;;19.50;99.90;;;;;;6036516;23;20276;-74
2021/09/30 14:30:10;;;;;;;3.87;1.30;;;19.40;99.90;;;;;;6035940;23;20183;-68
2021/09/30 14:32:36;;;;;;;3.30;1.20;;;19.30;99.90;;;;;;6035159;23;20180;-69
2021/09/30 14:35:03;;;;;;;6.37;1.83;;;19.10;99.90;;;;;;6035818;23;20889;-68
2021/09/30 14:37:28;;;;;;;5.23;1.70;;;19.00;99.90;;;;;;6034329;23;20207;-68
2021/09/30 14:39:54;;;;;;;9.53;2.63;;;18.90;99.90;;;;;;6032323;23;20581;-68
2021/09/30 14:42:20;;;;;;;3.10;1.50;;;18.80;99.90;;;;;;6035886;23;20160;-68
2021/09/30 14:44:46;;;;;;;3.33;1.67;;;18.70;99.90;;;;;;6041008;23;20184;-68
2021/09/30 14:47:13;;;;;;;5.23;1.60;;;18.70;99.90;;;;;;6056955;23;20565;-70
2021/09/30 14:49:39;;;;;;;10.27;2.47;;;18.60;99.90;;;;;;6056459;23;20560;-68
2021/09/30 14:52:13;;;;;;;7.20;1.83;;;18.40;99.90;;;;;;6056287;23;20546;-69
2021/09/30 14:54:39;;;;;;;4.37;1.50;;;18.30;99.90;;;;;;6040319;23;20509;-68
2021/09/30 14:57:05;;;;;;;2.87;1.37;;;18.20;99.90;;;;;;6033505;23;20593;-68
2021/09/30 14:59:31;;;;;;;5.57;1.63;;;18.30;99.90;;;;;;6035191;23;20572;-68
2021/09/30 15:01:56;;;;;;;3.63;1.60;;;18.20;99.90;;;;;;6036133;23;20865;-68
2021/09/30 15:04:22;;;;;;;2.40;1.50;;;18.20;99.90;;;;;;6035322;23;20183;-67
2021/09/30 15:06:49;;;;;;;3.60;1.70;;;18.00;99.90;;;;;;6035030;23;20211;-68
2021/09/30 15:09:15;;;;;;;5.27;2.13;;;18.00;99.90;;;;;;6036744;23;20664;-68
2021/09/30 15:11:41;;;;;;;2.70;1.67;;;17.90;99.90;;;;;;6010732;23;21191;-67
2021/09/30 15:14:08;;;;;;;5.33;1.60;;;17.80;99.90;;;;;;6036282;23;21054;-68
2021/09/30 15:16:39;;;;;;;4.47;1.50;;;17.60;99.90;;;;;;6036793;23;21014;-68
2021/09/30 15:19:07;;;;;;;4.27;1.70;;;17.60;99.90;;;;;;6035776;23;21114;-68
2021/09/30 15:21:33;;;;;;;5.00;1.50;;;17.50;99.90;;;;;;6036857;23;20597;-68
2021/09/30 15:24:05;;;;;;;2.83;1.40;;;17.40;99.90;;;;;;6036945;23;20524;-68
2021/09/30 15:26:31;;;;;;;2.57;1.40;;;17.30;99.90;;;;;;6033995;23;20951;-68
2021/09/30 15:28:58;;;;;;;3.60;1.37;;;17.30;99.90;;;;;;6033806;23;21059;-68
2021/09/30 15:31:25;;;;;;;3.90;1.87;;;17.30;99.90;;;;;;6036613;23;20543;-68
2021/09/30 15:33:52;;;;;;;2.40;1.20;;;17.30;99.90;;;;;;6009975;23;20818;-68
2021/09/30 15:36:19;;;;;;;7.73;2.10;;;17.30;99.90;;;;;;6033597;23;20635;-68
2021/09/30 15:38:46;;;;;;;5.00;1.90;;;17.20;99.90;;;;;;6036183;23;21100;-68
2021/09/30 15:41:15;;;;;;;5.60;2.00;;;17.20;99.90;;;;;;6033143;23;20584;-67
2021/09/30 15:43:40;;;;;;;4.87;1.50;;;17.20;99.90;;;;;;6034994;23;20959;-67
2021/09/30 15:46:06;;;;;;;3.33;1.70;;;17.00;99.90;;;;;;6033445;23;20700;-68
2021/09/30 15:48:32;;;;;;;6.40;1.60;;;17.10;99.90;;;;;;6034074;23;20608;-68